Time;durP1;ratioP1;P1;durP2;ratioP2;P2;SDS_P1;SDS_P2;PMS_P1;PMS_P2;Temp;Humidity;BMP_temperature;BMP_pressure;BME280_temperature;BME280_humidity;BME280_pressure;Samples;Min_cycle;Max_cycle;Signal;HPM_P1;HPM_P2
2022/10/21 00:01:49;;;;;;;53.53;31.47;;;;;;;;;;5094253;28;20282;-71
2022/10/21 00:04:15;;;;;;;73.53;35.23;;;;;;;;;;5093950;28;20339;-75
2022/10/21 00:06:41;;;;;;;68.43;33.20;;;;;;;;;;5095314;28;20275;-71
2022/10/21 00:09:07;;;;;;;52.07;31.53;;;;;;;;;;5095337;28;20285;-71
2022/10/21 00:11:33;;;;;;;61.20;34.07;;;;;;;;;;5094648;28;20766;-71
2022/10/21 00:13:59;;;;;;;61.83;33.60;;;;;;;;;;5094482;28;20291;-71
2022/10/21 00:16:25;;;;;;;48.77;30.37;;;;;;;;;;5094505;28;20290;-71
2022/10/21 00:18:51;;;;;;;65.07;33.20;;;;;;;;;;5095116;28;20286;-71
2022/10/21 00:21:19;;;;;;;63.00;32.93;;;;;;;;;;5094776;28;20318;-72
2022/10/21 00:23:45;;;;;;;60.17;32.97;;;;;;;;;;5095312;28;20353;-71
2022/10/21 00:26:12;;;;;;;61.03;33.37;;;;;;;;;;5094919;28;20856;-71
2022/10/21 00:28:38;;;;;;;61.60;33.07;;;;;;;;;;5094654;28;20289;-71
2022/10/21 00:31:08;;;;;;;66.53;34.33;;;;;;;;;;5093908;28;20699;-71
2022/10/21 00:33:34;;;;;;;57.93;34.23;;;;;;;;;;5094664;28;20274;-71
2022/10/21 00:36:05;;;;;;;52.30;30.87;;;;;;;;;;5094582;28;20761;-71
2022/10/21 00:38:32;;;;;;;60.73;31.57;;;;;;;;;;5093566;28;20293;-71
2022/10/21 00:40:58;;;;;;;53.73;31.97;;;;;;;;;;5094744;28;20361;-71
2022/10/21 00:43:24;;;;;;;70.00;35.77;;;;;;;;;;5094341;28;20274;-71
2022/10/21 00:45:53;;;;;;;62.33;33.37;;;;;;;;;;5094599;28;20278;-71
2022/10/21 00:48:40;;;;;;;80.30;35.60;;;;;;;;;;5094299;28;20339;-78
2022/10/21 00:51:09;;;;;;;64.67;33.37;;;;;;;;;;5094419;28;20849;-71
2022/10/21 00:53:36;;;;;;;69.27;35.13;;;;;;;;;;5092945;28;20282;-71
2022/10/21 00:56:09;;;;;;;59.40;33.10;;;;;;;;;;5094377;28;20274;-71
2022/10/21 00:58:36;;;;;;;70.70;35.00;;;;;;;;;;5094024;28;20286;-71
2022/10/21 01:01:03;;;;;;;72.57;35.40;;;;;;;;;;5094412;28;20331;-71
2022/10/21 01:03:30;;;;;;;71.00;36.10;;;;;;;;;;5093987;28;20369;-71
2022/10/21 01:05:58;;;;;;;64.73;34.13;;;;;;;;;;5094125;28;20282;-71
2022/10/21 01:08:24;;;;;;;63.43;33.57;;;;;;;;;;5093471;28;20762;-71
2022/10/21 01:10:51;;;;;;;63.50;33.87;;;;;;;;;;5094312;28;20286;-71
2022/10/21 01:13:25;;;;;;;61.93;32.50;;;;;;;;;;5094042;28;20274;-71
2022/10/21 01:16:02;;;;;;;62.70;33.00;;;;;;;;;;5093918;28;20675;-71
2022/10/21 01:18:34;;;;;;;66.40;33.47;;;;;;;;;;5093584;28;20759;-71
2022/10/21 01:21:00;;;;;;;70.13;34.10;;;;;;;;;;5093789;28;20754;-72
2022/10/21 01:23:26;;;;;;;76.67;35.40;;;;;;;;;;5093632;28;20285;-72
2022/10/21 01:26:01;;;;;;;75.37;35.47;;;;;;;;;;5093779;28;20286;-71
2022/10/21 01:28:30;;;;;;;69.40;34.40;;;;;;;;;;5093487;28;20340;-72
2022/10/21 01:31:12;;;;;;;58.90;32.07;;;;;;;;;;5093616;28;20168;-71
2022/10/21 01:33:40;;;;;;;58.70;34.07;;;;;;;;;;5093446;28;20278;-71
2022/10/21 01:36:06;;;;;;;74.23;34.27;;;;;;;;;;5093642;28;20664;-71
2022/10/21 01:38:39;;;;;;;68.63;33.40;;;;;;;;;;5093191;28;20385;-71
2022/10/21 01:41:05;;;;;;;66.23;33.87;;;;;;;;;;5093781;28;20274;-71
2022/10/21 01:43:43;;;;;;;68.40;34.30;;;;;;;;;;5093352;28;20385;-71
2022/10/21 01:46:13;;;;;;;83.03;36.97;;;;;;;;;;5093383;28;20381;-71
2022/10/21 01:48:48;;;;;;;62.43;35.33;;;;;;;;;;5092938;28;20313;-71
2022/10/21 01:51:16;;;;;;;67.03;34.13;;;;;;;;;;5093381;28;20274;-71
2022/10/21 01:53:53;;;;;;;56.23;31.77;;;12.40;99.90;;;;;;5091892;28;20289;-71
2022/10/21 01:56:20;;;;;;;72.97;36.23;;;12.30;99.90;;;;;;5093469;28;20271;-71
2022/10/21 01:58:47;;;;;;;61.37;33.43;;;12.30;99.90;;;;;;5091780;28;20289;-71
2022/10/21 02:01:15;;;;;;;65.23;34.00;;;12.30;99.90;;;;;;5092287;28;20282;-71
2022/10/21 02:03:45;;;;;;;79.13;37.57;;;12.30;99.90;;;;;;5092965;28;20323;-71
2022/10/21 02:06:12;;;;;;;73.53;35.90;;;12.30;99.90;;;;;;5093092;28;20330;-71
2022/10/21 02:08:40;;;;;;;62.60;34.17;;;12.30;99.90;;;;;;5092988;28;20733;-71
2022/10/21 02:11:08;;;;;;;52.77;32.30;;;12.40;99.90;;;;;;5093154;28;20356;-71
2022/10/21 02:13:57;;;;;;;58.13;33.43;;;;;;;;;;5093165;28;20277;-71
2022/10/21 02:16:25;;;;;;;70.70;36.20;;;;;;;;;;5093010;28;20297;-70
2022/10/21 02:18:51;;;;;;;58.60;31.57;;;;;;;;;;5092844;28;20350;-70
2022/10/21 02:21:19;;;;;;;61.97;35.00;;;;;;;;;;5093005;28;20384;-71
2022/10/21 02:23:52;;;;;;;70.87;35.33;;;12.40;99.90;;;;;;5091577;28;20282;-71
2022/10/21 02:26:19;;;;;;;68.53;35.23;;;12.60;99.90;;;;;;5092046;28;20290;-71
2022/10/21 02:28:45;;;;;;;88.20;41.70;;;12.60;99.90;;;;;;5092697;28;20282;-72
2022/10/21 02:31:18;;;;;;;74.73;35.90;;;12.60;99.90;;;;;;5093050;28;20278;-72
2022/10/21 02:33:58;;;;;;;67.57;34.63;;;12.60;99.90;;;;;;5092699;28;20823;-72
2022/10/21 02:36:58;;;;;;;77.60;36.10;;;12.60;99.90;;;;;;5091802;28;20705;-72
2022/10/21 02:39:47;;;;;;;77.53;37.13;;;12.60;99.90;;;;;;5092964;28;20289;-72
2022/10/21 02:42:19;;;;;;;95.73;40.43;;;12.70;99.90;;;;;;5093060;28;20615;-74
2022/10/21 02:44:44;;;;;;;84.60;38.67;;;12.70;99.90;;;;;;5091430;28;20469;-74
2022/10/21 02:47:10;;;;;;;86.87;38.57;;;12.70;99.90;;;;;;5091557;28;20281;-74
2022/10/21 02:49:36;;;;;;;106.80;41.47;;;12.70;99.90;;;;;;5074841;28;20068;-75
2022/10/21 02:52:01;;;;;;;84.13;38.00;;;12.70;99.90;;;;;;5074962;28;20123;-74
2022/10/21 02:54:27;;;;;;;71.93;34.70;;;12.80;99.90;;;;;;5092700;28;20048;-74
2022/10/21 02:56:53;;;;;;;90.90;37.60;;;;;;;;;;5091469;28;20204;-74
2022/10/21 02:59:19;;;;;;;72.77;35.20;;;12.80;99.90;;;;;;5093954;28;20048;-74
2022/10/21 03:01:44;;;;;;;82.10;36.80;;;12.80;99.90;;;;;;5096273;28;20278;-74
2022/10/21 03:04:10;;;;;;;85.57;36.73;;;12.80;99.90;;;;;;5096570;28;20383;-74
2022/10/21 03:06:36;;;;;;;77.70;35.90;;;12.90;99.90;;;;;;5096369;28;20101;-74
2022/10/21 03:09:01;;;;;;;87.83;36.27;;;12.90;99.90;;;;;;5095242;28;20051;-74
2022/10/21 03:11:27;;;;;;;84.00;34.30;;;12.90;99.90;;;;;;5096413;28;20438;-74
2022/10/21 03:13:53;;;;;;;90.00;35.60;;;13.00;99.90;;;;;;5096207;28;20123;-74
2022/10/21 03:16:18;;;;;;;77.07;33.23;;;13.00;99.90;;;;;;5096151;28;20067;-74
2022/10/21 03:18:44;;;;;;;83.80;32.20;;;;;;;;;;5096155;28;20190;-74
2022/10/21 03:21:10;;;;;;;70.93;31.80;;;;;;;;;;5096202;28;20104;-74
2022/10/21 03:23:36;;;;;;;72.07;31.10;;;;;;;;;;5096245;28;20318;-78
2022/10/21 03:26:02;;;;;;;67.53;29.53;;;;;;;;;;5096180;28;20289;-74
2022/10/21 03:28:29;;;;;;;60.83;27.97;;;;;;;;;;5096095;28;20419;-74
2022/10/21 03:30:55;;;;;;;49.97;25.37;;;13.40;99.90;;;;;;5095800;28;20309;-74
2022/10/21 03:33:21;;;;;;;66.60;26.60;;;13.40;99.90;;;;;;5096406;28;20398;-73
2022/10/21 03:35:46;;;;;;;57.67;26.40;;;13.40;99.90;;;;;;5095703;28;20317;-74
2022/10/21 03:38:12;;;;;;;45.87;25.17;;;13.30;99.90;;;;;;5095878;28;20131;-73
2022/10/21 03:40:38;;;;;;;57.27;28.23;;;13.40;99.90;;;;;;5095737;28;20040;-77
2022/10/21 03:43:03;;;;;;;49.67;25.53;;;13.40;99.90;;;;;;5095896;28;20388;-74
2022/10/21 03:45:29;;;;;;;46.57;24.73;;;13.40;99.90;;;;;;5095877;28;20080;-74
2022/10/21 03:47:55;;;;;;;56.17;26.70;;;13.40;99.90;;;;;;5095393;28;20043;-74
2022/10/21 03:50:21;;;;;;;63.73;26.80;;;13.40;99.90;;;;;;5095729;28;20137;-74
2022/10/21 03:52:47;;;;;;;57.60;26.07;;;13.40;99.90;;;;;;5095409;28;20086;-74
2022/10/21 03:55:13;;;;;;;67.77;27.73;;;13.40;99.90;;;;;;5095678;28;20302;-74
2022/10/21 03:57:38;;;;;;;54.67;28.53;;;13.30;99.90;;;;;;5095653;28;20131;-74
2022/10/21 04:00:05;;;;;;;48.63;25.73;;;13.30;99.90;;;;;;5094124;28;20043;-74
2022/10/21 04:02:30;;;;;;;54.37;26.37;;;13.30;99.90;;;;;;5095708;28;20381;-74
2022/10/21 04:04:56;;;;;;;56.43;27.03;;;13.30;99.90;;;;;;5095373;28;20274;-74
2022/10/21 04:07:22;;;;;;;69.80;28.73;;;13.30;99.90;;;;;;5095354;28;20040;-74
2022/10/21 04:09:47;;;;;;;70.87;29.40;;;13.30;99.90;;;;;;5094621;28;20476;-74
2022/10/21 04:12:13;;;;;;;74.80;29.87;;;13.30;99.90;;;;;;5095485;28;20044;-73
2022/10/21 04:14:39;;;;;;;71.13;29.27;;;13.30;99.90;;;;;;5095310;28;20104;-73
2022/10/21 04:17:05;;;;;;;84.70;32.20;;;;;;;;;;5093305;28;20519;-74
2022/10/21 04:19:31;;;;;;;85.83;32.03;;;;;;;;;;5095101;28;20048;-73
2022/10/21 04:21:57;;;;;;;74.07;30.27;;;;;;;;;;5094892;28;20402;-74
2022/10/21 04:24:23;;;;;;;78.43;31.03;;;;;;;;;;5094353;28;20286;-74
2022/10/21 04:26:49;;;;;;;82.10;31.27;;;;;;;;;;5094730;28;20307;-74
2022/10/21 04:29:15;;;;;;;87.43;34.63;;;;;;;;;;5094938;28;20434;-74
2022/10/21 04:31:41;;;;;;;81.27;34.47;;;;;;;;;;5094891;28;20282;-74
2022/10/21 04:34:07;;;;;;;74.60;33.53;;;;;;;;;;5094544;28;20289;-74
2022/10/21 04:36:33;;;;;;;90.33;35.70;;;;;;;;;;5093704;28;20339;-73
2022/10/21 04:38:59;;;;;;;88.57;34.83;;;;;;;;;;5094457;28;20282;-74
2022/10/21 04:41:25;;;;;;;86.53;35.60;;;;;;;;;;5094929;28;20286;-73
2022/10/21 04:43:51;;;;;;;75.00;34.43;;;;;;;;;;5094420;28;20284;-74
2022/10/21 04:46:19;;;;;;;96.13;36.73;;;;;;;;;;5094579;28;20286;-73
2022/10/21 04:48:45;;;;;;;112.17;39.03;;;;;;;;;;5093509;28;20289;-73
2022/10/21 04:51:11;;;;;;;86.20;36.23;;;;;;;;;;5094479;28;20286;-73
2022/10/21 04:53:37;;;;;;;105.93;40.23;;;;;;;;;;5093235;28;20292;-73
2022/10/21 04:56:04;;;;;;;113.37;39.43;;;;;;;;;;5094137;28;20282;-74
2022/10/21 04:58:30;;;;;;;103.17;38.47;;;;;;;;;;5093183;28;20309;-73
2022/10/21 05:00:56;;;;;;;89.07;38.03;;;;;;;;;;5094052;28;20361;-73
2022/10/21 05:03:22;;;;;;;105.50;39.43;;;;;;;;;;5094484;28;20587;-73
2022/10/21 05:05:49;;;;;;;78.27;37.17;;;;;;;;;;5092737;28;20286;-77
2022/10/21 05:08:15;;;;;;;99.23;38.53;;;;;;;;;;5093166;28;20322;-73
2022/10/21 05:10:41;;;;;;;102.97;40.77;;;;;;;;;;5094060;28;20282;-73
2022/10/21 05:13:07;;;;;;;104.77;39.40;;;;;;;;;;5093876;28;20666;-73
2022/10/21 05:15:33;;;;;;;101.53;39.03;;;;;;;;;;5094013;28;20274;-73
2022/10/21 05:18:00;;;;;;;109.57;41.13;;;;;;;;;;5093898;28;20320;-73
2022/10/21 05:20:26;;;;;;;106.37;40.20;;;;;;;;;;5093982;28;20287;-73
2022/10/21 05:22:52;;;;;;;124.17;41.07;;;;;;;;;;5092907;28;20318;-74
2022/10/21 05:25:21;;;;;;;136.67;46.03;;;;;;;;;;5093848;28;20364;-73
2022/10/21 05:27:47;;;;;;;117.43;44.30;;;;;;;;;;5092626;28;20331;-73
2022/10/21 05:30:13;;;;;;;119.33;40.07;;;;;;;;;;5093446;28;20278;-73
2022/10/21 05:32:40;;;;;;;113.77;40.57;;;;;;;;;;5093665;28;20274;-73
2022/10/21 05:35:06;;;;;;;115.63;39.80;;;;;;;;;;5093396;28;20365;-73
2022/10/21 05:37:32;;;;;;;103.10;37.77;;;;;;;;;;5093629;28;20384;-73
2022/10/21 05:39:58;;;;;;;118.47;42.90;;;;;;;;;;5092157;28;20284;-73
2022/10/21 05:42:25;;;;;;;122.37;42.00;;;;;;;;;;5093340;28;20747;-73
2022/10/21 05:44:51;;;;;;;90.30;38.83;;;;;;;;;;5093517;28;20289;-73
2022/10/21 05:47:17;;;;;;;142.67;44.37;;;;;;;;;;5093424;28;20317;-73
2022/10/21 05:49:43;;;;;;;114.57;41.57;;;;;;;;;;5093494;28;20274;-73
2022/10/21 05:52:09;;;;;;;137.23;45.87;;;;;;;;;;5093143;28;20770;-73
2022/10/21 05:54:35;;;;;;;134.23;43.27;;;;;;;;;;5093334;28;20282;-73
2022/10/21 05:57:02;;;;;;;139.37;48.87;;;;;;;;;;5093173;28;20352;-72
2022/10/21 05:59:28;;;;;;;153.60;46.43;;;;;;;;;;5091886;28;20757;-73
2022/10/21 06:01:54;;;;;;;182.63;51.63;;;;;;;;;;5093110;28;20331;-76
2022/10/21 06:04:20;;;;;;;178.30;47.80;;;;;;;;;;5093521;28;20627;-73
2022/10/21 06:06:46;;;;;;;141.17;46.03;;;;;;;;;;5093437;28;20278;-73
2022/10/21 06:09:12;;;;;;;185.93;50.20;;;;;;;;;;5092908;28;20274;-73
2022/10/21 06:11:38;;;;;;;121.27;44.87;;;;;;;;;;5093059;28;20278;-72
2022/10/21 06:14:04;;;;;;;133.60;47.67;;;;;;;;;;5092819;28;20335;-73
2022/10/21 06:16:34;;;;;;;150.13;45.87;;;;;;;;;;5092954;28;20634;-73
2022/10/21 06:19:00;;;;;;;125.00;44.73;;;;;;;;;;5091711;28;20616;-73
2022/10/21 06:21:26;;;;;;;164.50;50.80;;;;;;;;;;5092940;28;20761;-73
2022/10/21 06:23:53;;;;;;;170.50;51.63;;;;;;;;;;5092950;28;20343;-73
2022/10/21 06:26:19;;;;;;;158.50;50.97;;;;;;;;;;5092781;28;20456;-73
2022/10/21 06:28:45;;;;;;;144.63;47.83;;;;;;;;;;5092312;28;20293;-73
2022/10/21 06:31:15;;;;;;;181.10;52.90;;;;;;;;;;5092750;28;20630;-73
2022/10/21 06:33:42;;;;;;;127.57;48.97;;;;;;;;;;5095505;28;20278;-73
2022/10/21 06:36:08;;;;;;;145.00;48.40;;;;;;;;;;5095850;28;20603;-73
2022/10/21 06:38:35;;;;;;;145.07;46.10;;;;;;;;;;5097054;28;20298;-73
2022/10/21 06:41:06;;;;;;;151.23;48.60;;;;;;;;;;5096832;28;20675;-74
2022/10/21 06:43:32;;;;;;;155.30;49.03;;;;;;;;;;5079210;28;20722;-73
2022/10/21 06:45:59;;;;;;;149.30;46.50;;;;;;;;;;5096961;28;20300;-73
2022/10/21 06:48:25;;;;;;;150.10;46.80;;;;;;;;;;5096870;28;20285;-73
2022/10/21 06:50:55;;;;;;;110.30;42.67;;;;;;;;;;5096876;28;20292;-73
2022/10/21 06:53:21;;;;;;;167.70;46.57;;;;;;;;;;5096573;28;20286;-72
2022/10/21 06:55:47;;;;;;;88.23;39.93;;;;;;;;;;5096822;28;20285;-72
2022/10/21 06:58:13;;;;;;;111.20;41.53;;;;;;;;;;5096349;28;20336;-72
2022/10/21 07:00:39;;;;;;;121.20;42.57;;;;;;;;;;5095681;28;20285;-72
2022/10/21 07:03:06;;;;;;;135.97;43.53;;;;;;;;;;5096428;28;20286;-72
2022/10/21 07:05:32;;;;;;;150.17;46.70;;;;;;;;;;5096538;28;20286;-72
2022/10/21 07:07:58;;;;;;;171.80;46.20;;;;;;;;;;5096466;28;20280;-71
2022/10/21 07:10:24;;;;;;;151.67;45.83;;;;;;;;;;5095231;28;20289;-73
2022/10/21 07:12:50;;;;;;;155.87;44.30;;;;;;;;;;5096446;28;20282;-73
2022/10/21 07:15:16;;;;;;;133.43;43.97;;;;;;;;;;5096108;28;20353;-74
2022/10/21 07:17:42;;;;;;;140.83;43.10;;;;;;;;;;5094973;28;20298;-74
2022/10/21 07:20:08;;;;;;;127.97;43.30;;;;;;;;;;5095965;28;20306;-74
2022/10/21 07:22:34;;;;;;;96.23;39.07;;;;;;;;;;5095100;28;20419;-73
2022/10/21 07:25:00;;;;;;;100.43;38.13;;;;;;;;;;5096184;28;20278;-73
2022/10/21 07:27:26;;;;;;;95.17;38.30;;;;;;;;;;5095871;28;20826;-73
2022/10/21 07:29:52;;;;;;;100.30;37.97;;;;;;;;;;5094735;28;20769;-73
2022/10/21 07:32:18;;;;;;;94.83;37.20;;;;;;;;;;5094888;28;20298;-73
2022/10/21 07:34:44;;;;;;;90.90;36.00;;;;;;;;;;5096037;28;20278;-73
2022/10/21 07:37:10;;;;;;;101.77;40.53;;;;;;;;;;5095641;28;20294;-73
2022/10/21 07:39:37;;;;;;;90.53;37.97;;;;;;;;;;5095892;28;20339;-73
2022/10/21 07:42:03;;;;;;;116.47;39.23;;;;;;;;;;5095853;28;20293;-73
2022/10/21 07:44:29;;;;;;;86.03;35.83;;;;;;;;;;5094910;28;20295;-73
2022/10/21 07:46:55;;;;;;;109.67;37.07;;;;;;;;;;5094933;28;20739;-73
2022/10/21 07:49:22;;;;;;;86.63;37.63;;;;;;;;;;5095197;28;20709;-73
2022/10/21 07:51:49;;;;;;;93.03;37.30;;;;;;;;;;5095738;28;20319;-73
2022/10/21 07:54:15;;;;;;;76.50;35.10;;;;;;;;;;5094120;28;20342;-73
2022/10/21 07:56:43;;;;;;;72.27;32.27;;;;;;;;;;5095542;28;20787;-73
2022/10/21 07:59:09;;;;;;;63.83;31.37;;;;;;;;;;5077658;28;20294;-76
2022/10/21 08:01:35;;;;;;;87.20;36.13;;;;;;;;;;5095474;28;20427;-73
2022/10/21 08:04:02;;;;;;;80.40;38.10;;;;;;;;;;5095485;28;20772;-73
2022/10/21 08:06:28;;;;;;;94.33;38.03;;;;;;;;;;5095283;28;20282;-73
2022/10/21 08:08:58;;;;;;;88.10;37.40;;;;;;;;;;5095401;28;20282;-73
2022/10/21 08:11:25;;;;;;;91.87;35.00;;;;;;;;;;5093847;28;20347;-74
2022/10/21 08:13:52;;;;;;;70.70;34.67;;;;;;;;;;5095286;28;20288;-73
2022/10/21 08:16:18;;;;;;;75.80;31.73;;;;;;;;;;5094745;28;20777;-73
2022/10/21 08:18:44;;;;;;;74.57;32.73;;;;;;;;;;5095486;28;20290;-73
2022/10/21 08:21:11;;;;;;;101.67;37.33;;;;;;;;;;5094000;28;20357;-73
2022/10/21 08:23:37;;;;;;;67.37;30.03;;;;;;;;;;5093863;28;20785;-73
2022/10/21 08:26:03;;;;;;;89.43;34.00;;;;;;;;;;5095052;28;20396;-74
2022/10/21 08:28:30;;;;;;;73.43;31.93;;;;;;;;;;5094731;28;20309;-72
2022/10/21 08:31:05;;;;;;;73.87;31.17;;;;;;;;;;5093818;28;20290;-72
2022/10/21 08:33:31;;;;;;;76.10;31.50;;;;;;;;;;5094691;28;20314;-73
2022/10/21 08:35:58;;;;;;;81.83;34.03;;;;;;;;;;5094865;28;20339;-72
2022/10/21 08:38:24;;;;;;;81.83;32.00;;;;;;;;;;5094561;28;20351;-72
2022/10/21 08:40:50;;;;;;;57.67;29.50;;;;;;;;;;5094800;28;20630;-71
2022/10/21 08:43:20;;;;;;;68.10;30.60;;;;;;;;;;5094541;28;20317;-73
2022/10/21 08:45:53;;;;;;;57.03;29.37;;;;;;;;;;5094655;28;20769;-73
2022/10/21 08:48:25;;;;;;;55.53;28.40;;;13.80;99.90;;;;;;5094502;28;20737;-73
2022/10/21 08:50:53;;;;;;;74.50;30.73;;;13.80;99.90;;;;;;5094758;28;20431;-72
2022/10/21 08:53:22;;;;;;;57.93;28.67;;;13.80;99.90;;;;;;5076446;28;20376;-71
2022/10/21 08:55:48;;;;;;;63.63;27.57;;;;;;;;;;5094235;28;20290;-71
2022/10/21 08:58:19;;;;;;;65.23;27.90;;;;;;;;;;5093607;28;20297;-68
2022/10/21 09:00:45;;;;;;;49.53;24.90;;;;;;;;;;5093540;28;20762;-72
2022/10/21 09:03:14;;;;;;;73.60;30.20;;;;;;;;;;5094395;28;20290;-74
2022/10/21 09:05:51;;;;;;;48.23;26.10;;;;;;;;;;5094080;28;20365;-73
2022/10/21 09:08:24;;;;;;;48.83;25.60;;;;;;;;;;5094339;28;20278;-76
2022/10/21 09:10:53;;;;;;;38.73;21.70;;;;;;;;;;5094548;28;20279;-73
2022/10/21 09:13:55;;;;;;;44.70;25.40;;;;;;;;;;5093884;28;20044;-74
2022/10/21 09:16:21;;;;;;;44.17;24.40;;;;;;;;;;5050991;28;20290;-74
2022/10/21 09:18:55;;;;;;;42.47;24.30;;;;;;;;;;5080734;28;20314;-70
2022/10/21 09:21:24;;;;;;;46.05;23.13;;;;;;;;;;5093971;28;20289;-69
2022/10/21 09:24:05;;;;;;;42.30;22.57;;;;;;;;;;5094075;28;20191;-70
2022/10/21 09:26:31;;;;;;;47.43;23.87;;;;;;;;;;5093834;28;20278;-71
2022/10/21 09:29:00;;;;;;;38.10;23.20;;;14.30;99.90;;;;;;5094139;28;20036;-70
2022/10/21 09:31:28;;;;;;;42.67;23.30;;;14.30;99.90;;;;;;5093571;28;20639;-71
2022/10/21 09:33:58;;;;;;;49.40;24.03;;;14.40;99.90;;;;;;5093949;28;20318;-70
2022/10/21 09:36:28;;;;;;;37.77;21.80;;;14.40;99.90;;;;;;5093491;28;20274;-69
2022/10/21 09:39:02;;;;;;;36.87;22.00;;;14.50;99.90;;;;;;5093032;28;20056;-72
2022/10/21 09:41:38;;;;;;;41.23;22.73;;;14.50;99.90;;;;;;5093461;28;20048;-70
2022/10/21 09:44:04;;;;;;;42.63;21.87;;;14.50;99.90;;;;;;5093659;28;20481;-70
2022/10/21 09:46:29;;;;;;;34.40;21.43;;;14.50;99.90;;;;;;5093009;28;20048;-70
2022/10/21 09:48:56;;;;;;;42.97;21.30;;;14.50;99.90;;;;;;5092176;28;20546;-70
2022/10/21 09:51:32;;;;;;;40.20;21.97;;;14.60;99.90;;;;;;5093434;28;20040;-71
2022/10/21 09:54:02;;;;;;;38.73;21.37;;;;;;;;;;5093752;28;20091;-74
2022/10/21 09:56:37;;;;;;;39.13;20.93;;;14.60;99.90;;;;;;5093114;28;20131;-70
2022/10/21 09:59:16;;;;;;;28.67;19.43;;;14.60;99.90;;;;;;5093478;28;20331;-70
2022/10/21 10:01:42;;;;;;;27.20;17.67;;;14.70;99.90;;;;;;5093111;28;20051;-70
2022/10/21 10:04:20;;;;;;;31.93;19.07;;;14.70;99.90;;;;;;5093537;28;20438;-71
2022/10/21 10:06:46;;;;;;;35.50;19.63;;;14.70;99.90;;;;;;5093028;28;20048;-71
2022/10/21 10:09:29;;;;;;;26.07;17.17;;;14.70;99.90;;;;;;5092980;28;20050;-71
2022/10/21 10:12:04;;;;;;;34.90;19.83;;;14.70;99.90;;;;;;5092981;28;20051;-72
2022/10/21 10:14:41;;;;;;;24.20;16.80;;;14.70;99.90;;;;;;5092974;28;20044;-71
2022/10/21 10:17:36;;;;;;;26.97;17.30;;;14.70;99.90;;;;;;5092831;28;20056;-71
2022/10/21 10:20:04;;;;;;;32.85;18.55;;;14.80;99.90;;;;;;5075655;28;20127;-75
2022/10/21 10:22:31;;;;;;;28.87;16.97;;;;;;;;;;5092927;28;20074;-74
2022/10/21 10:25:22;;;;;;;26.20;16.20;;;14.80;99.90;;;;;;5092151;28;20440;-74
2022/10/21 10:27:55;;;;;;;28.43;16.33;;;14.90;99.90;;;;;;5091873;28;20056;-72
2022/10/21 10:30:22;;;;;;;30.47;15.90;;;;;;;;;;5092990;28;20084;-71
2022/10/21 10:32:51;;;;;;;25.13;16.50;;;15.00;99.90;;;;;;5092590;28;20048;-71
2022/10/21 10:35:34;;;;;;;28.17;16.53;;;15.10;99.90;;;;;;5092954;28;20044;-71
2022/10/21 10:38:03;;;;;;;25.53;15.20;;;;;;;;;;5075079;28;20044;-70
2022/10/21 10:40:32;;;;;;;23.23;15.93;;;;;;;;;;5092604;28;20045;-71
2022/10/21 10:43:05;;;;;;;22.83;14.97;;;;;;;;;;5092882;28;20132;-74
2022/10/21 10:45:31;;;;;;;25.70;14.73;;;;;;;;;;5092653;28;20368;-75
2022/10/21 10:47:59;;;;;;;24.27;15.03;;;;;;;;;;5092818;28;20503;-74
2022/10/21 10:50:37;;;;;;;21.07;13.33;;;;;;;;;;5092812;28;20050;-74
2022/10/21 10:53:22;;;;;;;21.77;12.80;;;;;;;;;;5092804;28;20527;-74
2022/10/21 10:56:00;;;;;;;20.40;13.05;;;;;;;;;;5092509;28;20079;-74
2022/10/21 10:58:28;;;;;;;17.07;12.07;;;;;;;;;;5092771;28;20048;-74
2022/10/21 11:00:56;;;;;;;23.03;13.77;;;;;;;;;;5092473;28;20048;-75
2022/10/21 11:03:27;;;;;;;21.83;13.43;;;;;;;;;;5092730;28;20044;-74
2022/10/21 11:05:57;;;;;;;21.10;12.67;;;;;;;;;;5092460;28;20084;-74
2022/10/21 11:08:25;;;;;;;21.53;13.07;;;;;;;;;;5092816;28;20061;-73
2022/10/21 11:11:06;;;;;;;18.77;13.00;;;;;;;;;;5092364;28;20583;-75
2022/10/21 11:13:34;;;;;;;20.50;13.03;;;;;;;;;;5092555;28;20142;-77
2022/10/21 11:16:18;;;;;;;20.07;11.87;;;;;;;;;;5092348;28;20641;-75
2022/10/21 11:18:59;;;;;;;19.02;11.35;;;;;;;;;;5092338;28;20066;-75
2022/10/21 11:21:42;;;;;;;20.90;11.87;;;;;;;;;;5095816;28;20075;-72
2022/10/21 11:24:16;;;;;;;17.43;11.10;;;;;;;;;;5095421;28;20480;-73
2022/10/21 11:26:54;;;;;;;19.27;12.30;;;;;;;;;;5095988;28;20108;-74
2022/10/21 11:29:39;;;;;;;19.30;12.57;;;;;;;;;;5096183;28;20396;-70
2022/10/21 11:32:19;;;;;;;16.15;11.10;;;;;;;;;;5096155;28;20091;-71
2022/10/21 11:34:45;;;;;;;18.67;11.27;;;;;;;;;;5095952;28;20083;-74
2022/10/21 11:37:36;;;;;;;17.57;11.50;;;;;;;;;;5096030;28;20045;-74
2022/10/21 11:40:10;;;;;;;17.03;10.73;;;;;;;;;;5095755;28;20514;-75
2022/10/21 11:42:40;;;;;;;18.47;11.53;;;;;;;;;;5095892;28;20044;-77
2022/10/21 11:45:18;;;;;;;15.80;10.90;;;;;;;;;;5094850;28;20402;-75
2022/10/21 11:47:55;;;;;;;16.60;10.93;;;;;;;;;;5095661;28;20036;-75
2022/10/21 11:50:31;;;;;;;19.57;11.77;;;15.60;99.90;;;;;;5095964;28;20079;-75
2022/10/21 11:53:10;;;;;;;16.57;10.20;;;15.50;99.90;;;;;;5095483;28;20472;-75
2022/10/21 11:55:37;;;;;;;18.00;10.87;;;15.60;99.90;;;;;;5095741;28;20141;-76
2022/10/21 11:58:18;;;;;;;20.70;11.57;;;15.60;99.90;;;;;;5094109;28;20052;-75
2022/10/21 12:01:29;;;;;;;14.87;10.53;;;15.60;99.90;;;;;;5095097;28;20510;-76
2022/10/21 12:04:23;;;;;;;15.27;10.63;;;15.60;99.90;;;;;;5078854;28;20099;-75
2022/10/21 12:07:27;;;;;;;16.10;10.40;;;15.60;99.90;;;;;;5094367;28;20429;-75
2022/10/21 12:10:13;;;;;;;19.90;10.27;;;15.60;99.90;;;;;;5094785;28;20491;-76
2022/10/21 12:12:45;;;;;;;16.33;10.13;;;15.60;99.90;;;;;;5095438;28;20083;-72
2022/10/21 12:15:21;;;;;;;13.13;8.87;;;15.70;99.90;;;;;;5095699;28;20380;-72
2022/10/21 12:17:48;;;;;;;15.63;9.30;;;15.70;99.90;;;;;;5094758;28;20113;-76
2022/10/21 12:20:21;;;;;;;16.07;9.93;;;15.70;99.90;;;;;;5095259;28;20048;-75
2022/10/21 12:22:47;;;;;;;13.20;8.20;;;15.70;99.90;;;;;;5095008;28;20044;-74
2022/10/21 12:25:27;;;;;;;16.77;9.47;;;15.70;99.90;;;;;;5094499;28;20123;-72
2022/10/21 12:28:25;;;;;;;16.17;10.00;;;15.70;99.90;;;;;;5094950;28;20365;-75
2022/10/21 12:31:01;;;;;;;15.20;8.87;;;15.70;99.90;;;;;;5093804;28;20056;-76
2022/10/21 12:33:40;;;;;;;14.03;9.07;;;15.80;99.90;;;;;;5094110;28;20464;-74
2022/10/21 12:36:15;;;;;;;15.60;8.90;;;15.80;99.90;;;;;;5094834;28;20104;-75
2022/10/21 12:38:41;;;;;;;16.10;8.93;;;;;;;;;;5095082;28;20044;-76
2022/10/21 12:41:27;;;;;;;16.07;9.17;;;;;;;;;;5094481;28;20055;-74
2022/10/21 12:43:53;;;;;;;14.93;8.67;;;;;;;;;;5086842;28;20047;-74
2022/10/21 12:46:24;;;;;;;13.90;8.50;;;;;;;;;;5094725;28;20140;-74
2022/10/21 12:48:51;;;;;;;15.20;8.43;;;;;;;;;;5093552;28;20374;-75
2022/10/21 12:51:26;;;;;;;14.17;8.87;;;16.00;99.90;;;;;;5094650;28;20125;-74
2022/10/21 12:54:05;;;;;;;15.93;9.07;;;16.00;99.90;;;;;;5094353;28;20083;-74
2022/10/21 12:56:33;;;;;;;14.07;8.50;;;16.00;99.90;;;;;;5094526;28;20048;-74
2022/10/21 12:59:03;;;;;;;15.87;8.57;;;16.10;99.90;;;;;;5093787;28;20484;-74
2022/10/21 13:01:42;;;;;;;14.80;9.23;;;16.10;99.90;;;;;;5093664;28;20052;-74
2022/10/21 13:04:32;;;;;;;16.10;8.97;;;16.10;99.90;;;;;;5094073;28;20052;-74
2022/10/21 13:07:01;;;;;;;14.27;8.23;;;16.10;99.90;;;;;;5094055;28;20044;-76
2022/10/21 13:09:31;;;;;;;16.80;8.60;;;;;;;;;;5094295;28;20080;-74
2022/10/21 13:12:09;;;;;;;14.97;8.30;;;;;;;;;;5093950;28;20441;-75
2022/10/21 13:14:43;;;;;;;14.83;8.63;;;;;;;;;;5093153;28;20052;-75
2022/10/21 13:17:21;;;;;;;13.17;9.03;;;;;;;;;;5093607;28;20105;-73
2022/10/21 13:19:47;;;;;;;14.57;8.13;;;16.30;99.90;;;;;;5093210;28;20054;-73
2022/10/21 13:22:32;;;;;;;17.47;8.80;;;16.30;99.90;;;;;;5093954;28;20058;-75
2022/10/21 13:25:14;;;;;;;16.95;9.20;;;16.20;99.90;;;;;;5092549;28;20051;-71
2022/10/21 13:27:45;;;;;;;15.10;8.40;;;16.30;99.90;;;;;;5094111;28;20488;-72
2022/10/21 13:30:35;;;;;;;16.83;9.30;;;16.20;99.90;;;;;;5092365;28;20470;-73
2022/10/21 13:33:13;;;;;;;13.77;8.90;;;16.30;99.90;;;;;;5092450;28;20086;-72
2022/10/21 13:35:50;;;;;;;15.87;9.50;;;16.30;99.90;;;;;;5094368;28;20383;-74
2022/10/21 13:38:23;;;;;;;12.00;9.03;;;16.30;99.90;;;;;;5094019;28;20040;-72
2022/10/21 13:40:53;;;;;;;16.23;9.77;;;16.40;99.90;;;;;;5093839;28;20059;-72
2022/10/21 13:43:43;;;;;;;18.50;10.27;;;16.30;99.90;;;;;;5092767;28;20048;-72
2022/10/21 13:46:33;;;;;;;19.37;10.27;;;16.30;99.90;;;;;;5091763;28;20056;-73
2022/10/21 13:48:59;;;;;;;15.20;10.57;;;16.30;99.90;;;;;;5092483;28;20063;-74
2022/10/21 13:51:30;;;;;;;15.87;11.63;;;16.30;99.90;;;;;;5093957;28;20056;-74